CheckWX is a tool to help pilots better visualize weather data.  It is not intended as a substitute for an official pre-flight weather briefing.

06:45:41 UTC

HETR METAR
El Tor Airport
Egypt
Current

46 mins ago

HETR 210600Z 28009KT CAVOK 25/20 Q1012
Observed
May-21 @ 06:00 UTC
Wind
  • 280° at 9 KTS
Visibility
10,000+ meters
Flight Rules
VFR
Cloud Levels
  • Clear skies
Temperature
25°C / 77°F
Dewpoint
20°C / 68°F
Humidity
74%
Altimeter
29.88" Hg
Pressure
1011.92 hPa
Previous

2 hours ago

HETR 210500Z 32009KT CAVOK 24/18 Q1011
Observed
May-21 @ 05:00 UTC
Wind
  • 320° at 9 KTS
Visibility
10,000+ meters
Flight Rules
VFR
Cloud Levels
  • Clear skies
Temperature
24°C / 75°F
Dewpoint
18°C / 64°F
Humidity
69%
Altimeter
29.85" Hg
Pressure
1010.92 hPa
Previous

3 hours ago

HETR 210400Z 32004KT CAVOK 23/18 Q1011
Observed
May-21 @ 04:00 UTC
Wind
  • 320° at 4 KTS
Visibility
10,000+ meters
Flight Rules
VFR
Cloud Levels
  • Clear skies
Temperature
23°C / 73°F
Dewpoint
18°C / 64°F
Humidity
74%
Altimeter
29.85" Hg
Pressure
1010.92 hPa